sensor_id;sensor_type;location;lat;lon;timestamp;pressure;altitude;pressure_sealevel;temperature;humidity
10806;BME280;5455;53.224;6.000;2024-03-25T00:02:01;100519.22;;;6.91;100.00
10806;BME280;5455;53.224;6.000;2024-03-25T00:04:28;100506.22;;;6.88;100.00
10806;BME280;5455;53.224;6.000;2024-03-25T00:06:57;100514.75;;;6.86;100.00
10806;BME280;5455;53.224;6.000;2024-03-25T00:09:24;100508.94;;;6.88;100.00
10806;BME280;5455;53.224;6.000;2024-03-25T00:11:51;100514.06;;;6.89;100.00
10806;BME280;5455;53.224;6.000;2024-03-25T00:14:21;100514.44;;;6.88;100.00
10806;BME280;5455;53.224;6.000;2024-03-25T00:16:48;100516.00;;;6.89;100.00
10806;BME280;5455;53.224;6.000;2024-03-25T00:19:14;100518.88;;;6.92;100.00
10806;BME280;5455;53.224;6.000;2024-03-25T00:21:40;100525.16;;;6.93;100.00
10806;BME280;5455;53.224;6.000;2024-03-25T00:24:08;100530.63;;;6.93;100.00
10806;BME280;5455;53.224;6.000;2024-03-25T00:26:34;100515.78;;;6.94;100.00
10806;BME280;5455;53.224;6.000;2024-03-25T00:29:00;100520.81;;;6.92;100.00
10806;BME280;5455;53.224;6.000;2024-03-25T00:31:26;100515.00;;;6.81;100.00
10806;BME280;5455;53.224;6.000;2024-03-25T00:33:53;100514.19;;;6.81;100.00
10806;BME280;5455;53.224;6.000;2024-03-25T00:36:19;100519.53;;;6.77;100.00
10806;BME280;5455;53.224;6.000;2024-03-25T00:38:45;100518.97;;;6.72;100.00
10806;BME280;5455;53.224;6.000;2024-03-25T00:41:11;100519.19;;;6.67;100.00
10806;BME280;5455;53.224;6.000;2024-03-25T00:43:37;100521.47;;;6.64;100.00
10806;BME280;5455;53.224;6.000;2024-03-25T00:46:03;100526.50;;;6.62;100.00
10806;BME280;5455;53.224;6.000;2024-03-25T00:48:30;100523.31;;;6.60;100.00
10806;BME280;5455;53.224;6.000;2024-03-25T00:50:55;100517.34;;;6.58;100.00
10806;BME280;5455;53.224;6.000;2024-03-25T00:53:21;100517.34;;;6.58;100.00
10806;BME280;5455;53.224;6.000;2024-03-25T00:55:48;100523.84;;;6.54;100.00
10806;BME280;5455;53.224;6.000;2024-03-25T00:58:14;100512.91;;;6.54;100.00
10806;BME280;5455;53.224;6.000;2024-03-25T01:00:41;100518.84;;;6.56;100.00
10806;BME280;5455;53.224;6.000;2024-03-25T01:03:07;100514.97;;;6.57;100.00
10806;BME280;5455;53.224;6.000;2024-03-25T01:05:40;100521.34;;;6.61;100.00
10806;BME280;5455;53.224;6.000;2024-03-25T01:08:06;100526.94;;;6.64;100.00
10806;BME280;5455;53.224;6.000;2024-03-25T01:10:33;100530.16;;;6.67;100.00
10806;BME280;5455;53.224;6.000;2024-03-25T01:12:59;100528.00;;;6.72;100.00
10806;BME280;5455;53.224;6.000;2024-03-25T01:15:25;100519.41;;;6.74;100.00
10806;BME280;5455;53.224;6.000;2024-03-25T01:17:51;100524.56;;;6.75;100.00
10806;BME280;5455;53.224;6.000;2024-03-25T01:20:17;100520.66;;;6.76;100.00
10806;BME280;5455;53.224;6.000;2024-03-25T01:22:44;100532.00;;;6.75;100.00
10806;BME280;5455;53.224;6.000;2024-03-25T01:25:10;100521.03;;;6.75;100.00
10806;BME280;5455;53.224;6.000;2024-03-25T01:27:36;100524.91;;;6.74;100.00
10806;BME280;5455;53.224;6.000;2024-03-25T01:30:02;100535.84;;;6.74;100.00
10806;BME280;5455;53.224;6.000;2024-03-25T01:32:30;100535.72;;;6.70;100.00
10806;BME280;5455;53.224;6.000;2024-03-25T01:34:56;100543.19;;;6.70;100.00
10806;BME280;5455;53.224;6.000;2024-03-25T01:37:22;100537.34;;;6.71;100.00
10806;BME280;5455;53.224;6.000;2024-03-25T01:39:48;100526.75;;;6.70;100.00
10806;BME280;5455;53.224;6.000;2024-03-25T01:42:14;100524.31;;;6.68;100.00
10806;BME280;5455;53.224;6.000;2024-03-25T01:44:41;100524.00;;;6.70;100.00
10806;BME280;5455;53.224;6.000;2024-03-25T01:47:07;100527.41;;;6.67;100.00
10806;BME280;5455;53.224;6.000;2024-03-25T01:49:33;100526.25;;;6.68;100.00
10806;BME280;5455;53.224;6.000;2024-03-25T01:51:59;100528.56;;;6.65;100.00
10806;BME280;5455;53.224;6.000;2024-03-25T01:54:25;100530.16;;;6.67;100.00
10806;BME280;5455;53.224;6.000;2024-03-25T01:56:52;100522.25;;;6.65;100.00
10806;BME280;5455;53.224;6.000;2024-03-25T01:59:20;100521.13;;;6.66;100.00
10806;BME280;5455;53.224;6.000;2024-03-25T02:01:46;100525.81;;;6.65;100.00
10806;BME280;5455;53.224;6.000;2024-03-25T02:04:13;100516.78;;;6.65;100.00
10806;BME280;5455;53.224;6.000;2024-03-25T02:06:41;100519.41;;;6.61;100.00
10806;BME280;5455;53.224;6.000;2024-03-25T02:09:09;100519.41;;;6.61;100.00
10806;BME280;5455;53.224;6.000;2024-03-25T02:11:36;100521.69;;;6.59;100.00
10806;BME280;5455;53.224;6.000;2024-03-25T02:14:02;100520.88;;;6.59;100.00
10806;BME280;5455;53.224;6.000;2024-03-25T02:16:29;100526.72;;;6.57;100.00
10806;BME280;5455;53.224;6.000;2024-03-25T02:18:55;100527.41;;;6.54;100.00
10806;BME280;5455;53.224;6.000;2024-03-25T02:21:21;100523.19;;;6.57;100.00
10806;BME280;5455;53.224;6.000;2024-03-25T02:23:48;100528.44;;;6.62;100.00
10806;BME280;5455;53.224;6.000;2024-03-25T02:26:15;100528.09;;;6.63;100.00
10806;BME280;5455;53.224;6.000;2024-03-25T02:28:41;100526.94;;;6.64;100.00
10806;BME280;5455;53.224;6.000;2024-03-25T02:31:07;100535.50;;;6.63;100.00
10806;BME280;5455;53.224;6.000;2024-03-25T02:33:33;100541.53;;;6.56;100.00
10806;BME280;5455;53.224;6.000;2024-03-25T02:36:00;100545.97;;;6.49;100.00
10806;BME280;5455;53.224;6.000;2024-03-25T02:38:26;100539.59;;;6.45;100.00
10806;BME280;5455;53.224;6.000;2024-03-25T02:40:53;100536.41;;;6.43;100.00
10806;BME280;5455;53.224;6.000;2024-03-25T02:43:20;100538.66;;;6.41;100.00
10806;BME280;5455;53.224;6.000;2024-03-25T02:45:49;100539.81;;;6.40;100.00
10806;BME280;5455;53.224;6.000;2024-03-25T02:48:15;100538.06;;;6.35;100.00
10806;BME280;5455;53.224;6.000;2024-03-25T02:50:41;100539.88;;;6.31;100.00
10806;BME280;5455;53.224;6.000;2024-03-25T02:53:08;100529.50;;;6.25;100.00
10806;BME280;5455;53.224;6.000;2024-03-25T02:55:34;100537.72;;;6.25;100.00
10806;BME280;5455;53.224;6.000;2024-03-25T02:58:00;100527.22;;;6.27;100.00
10806;BME280;5455;53.224;6.000;2024-03-25T03:00:27;100526.88;;;6.28;100.00
10806;BME280;5455;53.224;6.000;2024-03-25T03:02:53;100528.69;;;6.24;100.00
10806;BME280;5455;53.224;6.000;2024-03-25T03:05:19;100528.34;;;6.26;100.00
10806;BME280;5455;53.224;6.000;2024-03-25T03:07:45;100531.75;;;6.23;100.00
10806;BME280;5455;53.224;6.000;2024-03-25T03:10:12;100533.69;;;6.22;100.00
10806;BME280;5455;53.224;6.000;2024-03-25T03:12:38;100527.63;;;6.17;100.00
10806;BME280;5455;53.224;6.000;2024-03-25T03:15:04;100527.63;;;6.17;100.00
10806;BME280;5455;53.224;6.000;2024-03-25T03:17:30;100537.31;;;6.14;100.00
10806;BME280;5455;53.224;6.000;2024-03-25T03:19:56;100533.88;;;6.05;100.00
10806;BME280;5455;53.224;6.000;2024-03-25T03:22:22;100541.13;;;6.01;100.00
10806;BME280;5455;53.224;6.000;2024-03-25T03:24:48;100540.69;;;5.99;100.00
10806;BME280;5455;53.224;6.000;2024-03-25T03:27:14;100540.91;;;5.94;100.00
10806;BME280;5455;53.224;6.000;2024-03-25T03:29:40;100547.34;;;5.89;100.00
10806;BME280;5455;53.224;6.000;2024-03-25T03:32:06;100549.28;;;5.89;100.00
10806;BME280;5455;53.224;6.000;2024-03-25T03:34:32;100554.09;;;5.92;100.00
10806;BME280;5455;53.224;6.000;2024-03-25T03:36:58;100546.69;;;5.92;100.00
10806;BME280;5455;53.224;6.000;2024-03-25T03:39:24;100542.38;;;5.91;100.00
10806;BME280;5455;53.224;6.000;2024-03-25T03:41:50;100552.69;;;5.86;100.00
10806;BME280;5455;53.224;6.000;2024-03-25T03:44:16;100550.81;;;5.78;100.00
10806;BME280;5455;53.224;6.000;2024-03-25T03:46:43;100552.81;;;5.69;100.00
10806;BME280;5455;53.224;6.000;2024-03-25T03:49:09;100557.81;;;5.67;100.00
10806;BME280;5455;53.224;6.000;2024-03-25T03:51:35;100562.16;;;5.68;100.00
10806;BME280;5455;53.224;6.000;2024-03-25T03:54:01;100559.44;;;5.68;100.00
10806;BME280;5455;53.224;6.000;2024-03-25T03:56:26;100548.00;;;5.66;100.00
10806;BME280;5455;53.224;6.000;2024-03-25T03:58:52;100554.41;;;5.70;100.00
10806;BME280;5455;53.224;6.000;2024-03-25T04:01:19;100555.00;;;5.75;100.00
10806;BME280;5455;53.224;6.000;2024-03-25T04:03:45;100557.09;;;5.78;100.00
10806;BME280;5455;53.224;6.000;2024-03-25T04:06:12;100558.69;;;5.79;100.00
10806;BME280;5455;53.224;6.000;2024-03-25T04:08:39;100562.09;;;5.76;100.00
10806;BME280;5455;53.224;6.000;2024-03-25T04:11:06;100567.22;;;5.78;100.00
10806;BME280;5455;53.224;6.000;2024-03-25T04:13:35;100571.84;;;5.86;100.00
10806;BME280;5455;53.224;6.000;2024-03-25T04:16:05;100563.91;;;5.93;100.00
10806;BME280;5455;53.224;6.000;2024-03-25T04:18:32;100562.19;;;5.88;100.00
10806;BME280;5455;53.224;6.000;2024-03-25T04:20:58;100562.84;;;5.85;100.00
10806;BME280;5455;53.224;6.000;2024-03-25T04:23:25;100569.28;;;5.81;100.00
10806;BME280;5455;53.224;6.000;2024-03-25T04:25:52;100562.69;;;5.82;100.00
10806;BME280;5455;53.224;6.000;2024-03-25T04:28:19;100565.63;;;5.77;100.00
10806;BME280;5455;53.224;6.000;2024-03-25T04:30:52;100561.34;;;5.67;100.00
10806;BME280;5455;53.224;6.000;2024-03-25T04:33:19;100562.34;;;5.63;100.00
10806;BME280;5455;53.224;6.000;2024-03-25T04:35:46;100568.34;;;5.56;100.00
10806;BME280;5455;53.224;6.000;2024-03-25T04:38:12;100563.81;;;5.60;100.00
10806;BME280;5455;53.224;6.000;2024-03-25T04:40:39;100562.94;;;5.68;100.00
10806;BME280;5455;53.224;6.000;2024-03-25T04:43:06;100554.06;;;5.71;100.00
10806;BME280;5455;53.224;6.000;2024-03-25T04:45:32;100560.47;;;5.75;100.00
10806;BME280;5455;53.224;6.000;2024-03-25T04:47:58;100562.09;;;5.76;100.00
10806;BME280;5455;53.224;6.000;2024-03-25T04:50:24;100558.69;;;5.79;100.00
10806;BME280;5455;53.224;6.000;2024-03-25T04:52:50;100565.06;;;5.83;100.00
10806;BME280;5455;53.224;6.000;2024-03-25T04:55:16;100570.91;;;5.82;100.00
10806;BME280;5455;53.224;6.000;2024-03-25T04:57:41;100573.28;;;5.83;100.00
10806;BME280;5455;53.224;6.000;2024-03-25T05:00:08;100577.00;;;5.87;100.00
10806;BME280;5455;53.224;6.000;2024-03-25T05:02:37;100580.38;;;5.84;100.00
10806;BME280;5455;53.224;6.000;2024-03-25T05:05:04;100584.91;;;5.80;100.00
10806;BME280;5455;53.224;6.000;2024-03-25T05:07:30;100588.66;;;5.76;100.00
10806;BME280;5455;53.224;6.000;2024-03-25T05:09:56;100581.09;;;5.73;100.00
10806;BME280;5455;53.224;6.000;2024-03-25T05:12:22;100580.97;;;5.69;100.00
10806;BME280;5455;53.224;6.000;2024-03-25T05:14:48;100579.19;;;5.73;100.00
10806;BME280;5455;53.224;6.000;2024-03-25T05:17:14;100573.69;;;5.73;100.00
10806;BME280;5455;53.224;6.000;2024-03-25T05:19:40;100578.50;;;5.76;100.00
10806;BME280;5455;53.224;6.000;2024-03-25T05:22:06;100570.81;;;5.70;100.00
10806;BME280;5455;53.224;6.000;2024-03-25T05:24:32;100573.13;;;5.59;100.00
10806;BME280;5455;53.224;6.000;2024-03-25T05:26:58;100573.56;;;5.49;100.00
10806;BME280;5455;53.224;6.000;2024-03-25T05:29:24;100581.66;;;5.37;100.00
10806;BME280;5455;53.224;6.000;2024-03-25T05:31:58;100581.09;;;5.23;100.00
10806;BME280;5455;53.224;6.000;2024-03-25T05:34:25;100582.53;;;5.20;100.00
10806;BME280;5455;53.224;6.000;2024-03-25T05:36:52;100579.75;;;5.29;100.00
10806;BME280;5455;53.224;6.000;2024-03-25T05:39:18;100577.00;;;5.37;100.00
10806;BME280;5455;53.224;6.000;2024-03-25T05:41:44;100578.88;;;5.45;100.00
10806;BME280;5455;53.224;6.000;2024-03-25T05:44:10;100580.28;;;5.51;100.00
10806;BME280;5455;53.224;6.000;2024-03-25T05:46:36;100579.41;;;5.60;100.00
10806;BME280;5455;53.224;6.000;2024-03-25T05:49:03;100580.16;;;5.69;100.00
10806;BME280;5455;53.224;6.000;2024-03-25T05:51:30;100585.56;;;5.77;100.00
10806;BME280;5455;53.224;6.000;2024-03-25T05:53:56;100587.59;;;5.89;100.00
10806;BME280;5455;53.224;6.000;2024-03-25T05:56:22;100593.34;;;5.96;100.00
10806;BME280;5455;53.224;6.000;2024-03-25T05:58:48;100586.75;;;5.97;100.00
10806;BME280;5455;53.224;6.000;2024-03-25T06:01:14;100591.88;;;5.98;100.00
10806;BME280;5455;53.224;6.000;2024-03-25T06:03:40;100585.84;;;6.05;100.00
10806;BME280;5455;53.224;6.000;2024-03-25T06:06:06;100593.41;;;6.08;100.00
10806;BME280;5455;53.224;6.000;2024-03-25T06:08:32;100584.53;;;6.11;100.00
10806;BME280;5455;53.224;6.000;2024-03-25T06:11:01;100592.28;;;6.09;100.00
10806;BME280;5455;53.224;6.000;2024-03-25T06:13:27;100598.06;;;6.07;100.00
10806;BME280;5455;53.224;6.000;2024-03-25T06:15:53;100606.69;;;5.97;100.00
10806;BME280;5455;53.224;6.000;2024-03-25T06:18:19;100603.22;;;5.88;100.00
10806;BME280;5455;53.224;6.000;2024-03-25T06:20:45;100609.91;;;5.99;100.00
10806;BME280;5455;53.224;6.000;2024-03-25T06:23:24;100613.91;;;6.02;100.00
10806;BME280;5455;53.224;6.000;2024-03-25T06:25:52;100605.69;;;6.02;100.00
10806;BME280;5455;53.224;6.000;2024-03-25T06:28:19;100609.09;;;5.99;100.00
10806;BME280;5455;53.224;6.000;2024-03-25T06:30:46;100613.69;;;6.07;100.00
10806;BME280;5455;53.224;6.000;2024-03-25T06:33:31;100605.84;;;6.38;100.00
10806;BME280;5455;53.224;6.000;2024-03-25T06:36:16;100608.19;;;6.48;100.00
10806;BME280;5455;53.224;6.000;2024-03-25T06:38:43;100603.19;;;6.62;100.00
10806;BME280;5455;53.224;6.000;2024-03-25T06:41:09;100602.25;;;6.58;100.00
10806;BME280;5455;53.224;6.000;2024-03-25T06:43:39;100605.97;;;6.75;100.00
10806;BME280;5455;53.224;6.000;2024-03-25T06:46:05;100610.31;;;6.76;100.00
10806;BME280;5455;53.224;6.000;2024-03-25T06:48:32;100599.78;;;6.65;100.00
10806;BME280;5455;53.224;6.000;2024-03-25T06:51:00;100603.72;;;6.56;100.00
10806;BME280;5455;53.224;6.000;2024-03-25T06:53:29;100603.50;;;6.61;100.00
10806;BME280;5455;53.224;6.000;2024-03-25T06:55:56;100605.25;;;6.65;100.00
10806;BME280;5455;53.224;6.000;2024-03-25T06:58:24;100604.00;;;6.63;100.00
10806;BME280;5455;53.224;6.000;2024-03-25T07:00:51;100600.72;;;6.70;100.00
10806;BME280;5455;53.224;6.000;2024-03-25T07:03:18;100601.19;;;6.84;100.00
10806;BME280;5455;53.224;6.000;2024-03-25T07:05:48;100599.38;;;7.12;100.00
10806;BME280;5455;53.224;6.000;2024-03-25T07:08:27;100601.34;;;7.24;100.00
10806;BME280;5455;53.224;6.000;2024-03-25T07:10:53;100598.25;;;7.25;100.00
10806;BME280;5455;53.224;6.000;2024-03-25T07:13:20;100590.13;;;7.29;100.00
10806;BME280;5455;53.224;6.000;2024-03-25T07:15:46;100601.22;;;7.44;100.00
10806;BME280;5455;53.224;6.000;2024-03-25T07:18:12;100609.66;;;7.63;100.00
10806;BME280;5455;53.224;6.000;2024-03-25T07:20:39;100611.81;;;7.70;100.00
10806;BME280;5455;53.224;6.000;2024-03-25T07:23:05;100615.59;;;7.65;100.00
10806;BME280;5455;53.224;6.000;2024-03-25T07:25:32;100616.97;;;7.59;100.00
10806;BME280;5455;53.224;6.000;2024-03-25T07:27:58;100623.59;;;7.70;100.00
10806;BME280;5455;53.224;6.000;2024-03-25T07:30:25;100632.13;;;7.81;100.00
10806;BME280;5455;53.224;6.000;2024-03-25T07:32:54;100626.75;;;7.85;100.00
10806;BME280;5455;53.224;6.000;2024-03-25T07:35:20;100620.78;;;8.07;100.00
10806;BME280;5455;53.224;6.000;2024-03-25T07:37:47;100614.00;;;8.28;100.00
10806;BME280;5455;53.224;6.000;2024-03-25T07:40:13;100621.97;;;8.21;100.00
10806;BME280;5455;53.224;6.000;2024-03-25T07:42:39;100616.63;;;8.13;100.00
10806;BME280;5455;53.224;6.000;2024-03-25T07:45:06;100623.09;;;7.93;100.00
10806;BME280;5455;53.224;6.000;2024-03-25T07:47:32;100620.19;;;7.61;100.00
10806;BME280;5455;53.224;6.000;2024-03-25T07:49:59;100620.53;;;7.36;100.00
10806;BME280;5455;53.224;6.000;2024-03-25T07:52:26;100605.56;;;7.09;100.00
10806;BME280;5455;53.224;6.000;2024-03-25T07:54:53;100619.38;;;7.12;100.00
10806;BME280;5455;53.224;6.000;2024-03-25T07:57:20;100620.06;;;7.09;100.00
10806;BME280;5455;53.224;6.000;2024-03-25T07:59:46;100616.19;;;7.10;100.00
10806;BME280;5455;53.224;6.000;2024-03-25T08:02:12;100618.56;;;7.12;100.00
10806;BME280;5455;53.224;6.000;2024-03-25T08:04:39;100620.19;;;7.25;100.00
10806;BME280;5455;53.224;6.000;2024-03-25T08:07:05;100624.06;;;7.36;100.00
10806;BME280;5455;53.224;6.000;2024-03-25T08:09:31;100622.00;;;7.45;100.00
10806;BME280;5455;53.224;6.000;2024-03-25T08:12:00;100623.28;;;7.48;100.00
10806;BME280;5455;53.224;6.000;2024-03-25T08:14:34;100615.38;;;7.46;100.00
10806;BME280;5455;53.224;6.000;2024-03-25T08:17:05;100626.59;;;7.53;100.00
10806;BME280;5455;53.224;6.000;2024-03-25T08:19:31;100627.47;;;7.57;100.00
10806;BME280;5455;53.224;6.000;2024-03-25T08:21:58;100630.56;;;7.68;100.00
10806;BME280;5455;53.224;6.000;2024-03-25T08:24:29;100633.56;;;7.75;100.00
10806;BME280;5455;53.224;6.000;2024-03-25T08:27:06;100637.03;;;8.00;100.00
10806;BME280;5455;53.224;6.000;2024-03-25T08:29:42;100637.09;;;8.27;100.00
10806;BME280;5455;53.224;6.000;2024-03-25T08:32:23;100638.63;;;8.53;100.00
10806;BME280;5455;53.224;6.000;2024-03-25T08:35:10;100629.06;;;8.78;100.00
10806;BME280;5455;53.224;6.000;2024-03-25T08:37:53;100639.31;;;8.93;100.00
10806;BME280;5455;53.224;6.000;2024-03-25T08:40:33;100636.06;;;9.19;100.00
10806;BME280;5455;53.224;6.000;2024-03-25T08:43:00;100645.97;;;9.39;100.00
10806;BME280;5455;53.224;6.000;2024-03-25T08:45:27;100633.91;;;9.43;100.00
10806;BME280;5455;53.224;6.000;2024-03-25T08:47:58;100645.28;;;9.42;100.00
10806;BME280;5455;53.224;6.000;2024-03-25T08:50:27;100635.97;;;9.31;100.00
10806;BME280;5455;53.224;6.000;2024-03-25T08:52:54;100635.16;;;9.30;100.00
10806;BME280;5455;53.224;6.000;2024-03-25T08:55:21;100639.56;;;9.19;100.00
10806;BME280;5455;53.224;6.000;2024-03-25T08:57:48;100643.22;;;9.08;100.00
10806;BME280;5455;53.224;6.000;2024-03-25T09:00:16;100636.28;;;8.82;100.00
10806;BME280;5455;53.224;6.000;2024-03-25T09:02:45;100645.09;;;8.60;100.00
10806;BME280;5455;53.224;6.000;2024-03-25T09:05:13;100638.78;;;8.60;100.00
10806;BME280;5455;53.224;6.000;2024-03-25T09:07:45;100647.03;;;8.60;100.00
10806;BME280;5455;53.224;6.000;2024-03-25T09:10:19;100645.09;;;8.60;100.00
10806;BME280;5455;53.224;6.000;2024-03-25T09:13:23;100646.97;;;8.72;100.00
10806;BME280;5455;53.224;6.000;2024-03-25T09:15:57;100647.38;;;8.86;100.00
10806;BME280;5455;53.224;6.000;2024-03-25T09:18:24;100638.88;;;9.22;100.00
10806;BME280;5455;53.224;6.000;2024-03-25T09:21:29;100647.13;;;9.38;100.00
10806;BME280;5455;53.224;6.000;2024-03-25T09:23:50;100641.34;;;9.59;100.00
10806;BME280;5455;53.224;6.000;2024-03-25T09:26:29;100639.50;;;9.47;100.00
10806;BME280;5455;53.224;6.000;2024-03-25T09:29:20;100641.53;;;9.34;100.00
10806;BME280;5455;53.224;6.000;2024-03-25T09:31:46;100637.09;;;9.46;100.00
10806;BME280;5455;53.224;6.000;2024-03-25T09:34:15;100641.34;;;9.59;100.00
10806;BME280;5455;53.224;6.000;2024-03-25T09:36:42;100634.25;;;9.58;100.00
10806;BME280;5455;53.224;6.000;2024-03-25T09:39:08;100634.34;;;9.61;100.00
10806;BME280;5455;53.224;6.000;2024-03-25T09:41:37;100629.25;;;9.98;100.00
10806;BME280;5455;53.224;6.000;2024-03-25T09:44:07;100646.59;;;10.52;100.00
10806;BME280;5455;53.224;6.000;2024-03-25T09:46:42;100642.72;;;10.76;100.00
10806;BME280;5455;53.224;6.000;2024-03-25T09:49:08;100651.81;;;10.99;100.00
10806;BME280;5455;53.224;6.000;2024-03-25T09:51:35;100646.84;;;10.86;100.00
10806;BME280;5455;53.224;6.000;2024-03-25T09:54:01;100649.50;;;10.60;100.00
10806;BME280;5455;53.224;6.000;2024-03-25T09:56:33;100648.41;;;10.26;100.00
10806;BME280;5455;53.224;6.000;2024-03-25T09:59:08;100646.66;;;10.02;100.00
10806;BME280;5455;53.224;6.000;2024-03-25T10:01:37;100637.84;;;9.77;100.00
10806;BME280;5455;53.224;6.000;2024-03-25T10:04:23;100633.28;;;9.50;100.00
10806;BME280;5455;53.224;6.000;2024-03-25T10:07:45;100629.28;;;9.16;100.00
10806;BME280;5455;53.224;6.000;2024-03-25T10:10:12;100624.59;;;9.17;100.00
10806;BME280;5455;53.224;6.000;2024-03-25T10:12:38;100623.59;;;9.40;100.00
10806;BME280;5455;53.224;6.000;2024-03-25T10:15:14;100629.78;;;9.69;100.00
10806;BME280;5455;53.224;6.000;2024-03-25T10:18:25;100623.59;;;10.45;100.00
10806;BME280;5455;53.224;6.000;2024-03-25T10:20:51;100627.38;;;10.79;100.00
10806;BME280;5455;53.224;6.000;2024-03-25T10:23:26;100618.91;;;10.87;100.00
10806;BME280;5455;53.224;6.000;2024-03-25T10:26:27;100617.00;;;11.14;100.00
10806;BME280;5455;53.224;6.000;2024-03-25T10:31:26;100633.03;;;10.86;100.00
10806;BME280;5455;53.224;6.000;2024-03-25T10:33:52;100626.25;;;11.02;100.00
10806;BME280;5455;53.224;6.000;2024-03-25T10:36:21;100634.88;;;11.24;100.00
10806;BME280;5455;53.224;6.000;2024-03-25T10:39:01;100633.94;;;11.35;100.00
10806;BME280;5455;53.224;6.000;2024-03-25T10:41:34;100629.25;;;11.17;100.00
10806;BME280;5455;53.224;6.000;2024-03-25T10:44:03;100625.84;;;11.23;100.00
10806;BME280;5455;53.224;6.000;2024-03-25T10:46:34;100623.13;;;11.04;100.00
10806;BME280;5455;53.224;6.000;2024-03-25T10:49:27;100611.78;;;10.86;100.00
10806;BME280;5455;53.224;6.000;2024-03-25T10:51:50;100629.66;;;10.73;100.00
10806;BME280;5455;53.224;6.000;2024-03-25T10:54:23;100629.97;;;10.49;100.00
10806;BME280;5455;53.224;6.000;2024-03-25T10:56:58;100618.09;;;10.26;100.00
10806;BME280;5455;53.224;6.000;2024-03-25T10:59:26;100626.78;;;10.28;100.00
10806;BME280;5455;53.224;6.000;2024-03-25T11:01:53;100621.72;;;10.30;100.00
10806;BME280;5455;53.224;6.000;2024-03-25T11:04:20;100615.97;;;10.19;100.00
10806;BME280;5455;53.224;6.000;2024-03-25T11:07:30;100621.47;;;10.00;100.00
10806;BME280;5455;53.224;6.000;2024-03-25T11:10:02;100621.13;;;9.86;100.00
10806;BME280;5455;53.224;6.000;2024-03-25T11:12:34;100599.94;;;10.06;100.00
10806;BME280;5455;53.224;6.000;2024-03-25T11:15:08;100614.97;;;10.27;100.00
10806;BME280;5455;53.224;6.000;2024-03-25T11:17:48;100614.38;;;10.57;100.00
10806;BME280;5455;53.224;6.000;2024-03-25T11:20:18;100606.66;;;10.66;100.00
10806;BME280;5455;53.224;6.000;2024-03-25T11:23:13;100612.25;;;10.69;100.00
10806;BME280;5455;53.224;6.000;2024-03-25T11:26:05;100614.31;;;10.76;100.00
10806;BME280;5455;53.224;6.000;2024-03-25T11:28:32;100608.19;;;11.05;100.00
10806;BME280;5455;53.224;6.000;2024-03-25T11:31:08;100605.91;;;11.11;100.00
10806;BME280;5455;53.224;6.000;2024-03-25T11:33:38;100602.09;;;11.19;100.00
10806;BME280;5455;53.224;6.000;2024-03-25T11:36:05;100595.22;;;11.58;100.00
10806;BME280;5455;53.224;6.000;2024-03-25T11:38:31;100605.00;;;11.78;100.00
10806;BME280;5455;53.224;6.000;2024-03-25T11:40:58;100593.63;;;11.57;100.00
10806;BME280;5455;53.224;6.000;2024-03-25T11:43:34;100598.13;;;11.69;100.00
10806;BME280;5455;53.224;6.000;2024-03-25T11:46:07;100597.59;;;11.82;100.00
10806;BME280;5455;53.224;6.000;2024-03-25T11:48:37;100590.66;;;11.95;100.00
10806;BME280;5455;53.224;6.000;2024-03-25T11:51:16;100592.56;;;11.91;100.00
10806;BME280;5455;53.224;6.000;2024-03-25T11:53:42;100587.88;;;11.69;100.00
10806;BME280;5455;53.224;6.000;2024-03-25T11:56:08;100585.22;;;11.73;100.00
10806;BME280;5455;53.224;6.000;2024-03-25T11:58:34;100579.06;;;11.60;100.00
10806;BME280;5455;53.224;6.000;2024-03-25T12:01:00;100575.69;;;11.44;100.00
10806;BME280;5455;53.224;6.000;2024-03-25T12:03:26;100580.13;;;11.52;100.00
10806;BME280;5455;53.224;6.000;2024-03-25T12:05:52;100573.03;;;11.51;100.00
10806;BME280;5455;53.224;6.000;2024-03-25T12:08:18;100576.13;;;11.72;100.00
10806;BME280;5455;53.224;6.000;2024-03-25T12:10:44;100570.19;;;11.70;100.00
10806;BME280;5455;53.224;6.000;2024-03-25T12:13:31;100562.38;;;11.27;100.00
10806;BME280;5455;53.224;6.000;2024-03-25T12:16:00;100565.00;;;11.16;100.00
10806;BME280;5455;53.224;6.000;2024-03-25T12:18:26;100557.78;;;11.08;100.00
10806;BME280;5455;53.224;6.000;2024-03-25T12:20:52;100551.53;;;11.11;100.00
10806;BME280;5455;53.224;6.000;2024-03-25T12:23:18;100551.75;;;11.25;100.00
10806;BME280;5455;53.224;6.000;2024-03-25T12:25:50;100556.56;;;11.32;100.00
10806;BME280;5455;53.224;6.000;2024-03-25T12:28:16;100548.59;;;11.27;100.00
10806;BME280;5455;53.224;6.000;2024-03-25T12:30:51;100544.63;;;11.24;100.00
10806;BME280;5455;53.224;6.000;2024-03-25T12:33:19;100555.84;;;11.12;100.00
10806;BME280;5455;53.224;6.000;2024-03-25T12:35:52;100548.25;;;11.05;100.00
10806;BME280;5455;53.224;6.000;2024-03-25T12:38:30;100545.28;;;11.18;100.00
10806;BME280;5455;53.224;6.000;2024-03-25T12:41:07;100543.59;;;11.36;100.00
10806;BME280;5455;53.224;6.000;2024-03-25T12:43:35;100542.25;;;11.23;100.00
10806;BME280;5455;53.224;6.000;2024-03-25T12:46:02;100543.47;;;11.02;98.86
10806;BME280;5455;53.224;6.000;2024-03-25T12:48:31;100538.66;;;10.96;99.97
10806;BME280;5455;53.224;6.000;2024-03-25T12:50:57;100526.56;;;11.04;98.74
10806;BME280;5455;53.224;6.000;2024-03-25T12:53:32;100526.63;;;11.07;98.56
10806;BME280;5455;53.224;6.000;2024-03-25T12:56:00;100530.53;;;11.29;100.00
10806;BME280;5455;53.224;6.000;2024-03-25T12:58:26;100527.56;;;11.45;97.17
10806;BME280;5455;53.224;6.000;2024-03-25T13:00:52;100530.66;;;11.40;95.82
10806;BME280;5455;53.224;6.000;2024-03-25T13:03:18;100521.22;;;11.41;97.75
10806;BME280;5455;53.224;6.000;2024-03-25T13:05:44;100520.75;;;11.35;96.50
10806;BME280;5455;53.224;6.000;2024-03-25T13:08:09;100523.00;;;11.30;98.19
10806;BME280;5455;53.224;6.000;2024-03-25T13:10:36;100522.25;;;11.29;99.50